sensor_id;sensor_type;location;lat;lon;timestamp;P1;durP1;ratioP1;P2;durP2;ratioP2
4517;SDS011;2271;49.464;11.070;2022-07-29T00:02:14;4.55;;;1.92;;
4517;SDS011;2271;49.464;11.070;2022-07-29T00:04:39;1.98;;;1.30;;
4517;SDS011;2271;49.464;11.070;2022-07-29T00:07:05;3.90;;;1.35;;
4517;SDS011;2271;49.464;11.070;2022-07-29T00:09:31;3.03;;;1.40;;
4517;SDS011;2271;49.464;11.070;2022-07-29T00:11:58;3.10;;;1.65;;
4517;SDS011;2271;49.464;11.070;2022-07-29T00:14:25;3.22;;;1.55;;
4517;SDS011;2271;49.464;11.070;2022-07-29T00:16:51;3.08;;;1.42;;
4517;SDS011;2271;49.464;11.070;2022-07-29T00:19:17;2.85;;;1.92;;
4517;SDS011;2271;49.464;11.070;2022-07-29T00:21:42;4.30;;;1.80;;
4517;SDS011;2271;49.464;11.070;2022-07-29T00:24:08;2.42;;;1.52;;
4517;SDS011;2271;49.464;11.070;2022-07-29T00:26:34;2.10;;;1.33;;
4517;SDS011;2271;49.464;11.070;2022-07-29T00:29:00;6.93;;;1.45;;
4517;SDS011;2271;49.464;11.070;2022-07-29T00:31:27;2.30;;;1.60;;
4517;SDS011;2271;49.464;11.070;2022-07-29T00:33:53;2.20;;;1.30;;
4517;SDS011;2271;49.464;11.070;2022-07-29T00:36:18;3.72;;;1.35;;
4517;SDS011;2271;49.464;11.070;2022-07-29T00:38:46;1.83;;;1.42;;
4517;SDS011;2271;49.464;11.070;2022-07-29T00:41:12;2.55;;;1.45;;
4517;SDS011;2271;49.464;11.070;2022-07-29T00:43:38;2.30;;;1.30;;
4517;SDS011;2271;49.464;11.070;2022-07-29T00:46:04;2.90;;;1.30;;
4517;SDS011;2271;49.464;11.070;2022-07-29T00:48:29;2.25;;;1.48;;
4517;SDS011;2271;49.464;11.070;2022-07-29T00:50:56;3.10;;;1.65;;
4517;SDS011;2271;49.464;11.070;2022-07-29T00:53:23;5.63;;;1.50;;
4517;SDS011;2271;49.464;11.070;2022-07-29T00:55:50;3.13;;;1.45;;
4517;SDS011;2271;49.464;11.070;2022-07-29T00:58:18;1.92;;;1.48;;
4517;SDS011;2271;49.464;11.070;2022-07-29T01:00:44;4.15;;;1.67;;
4517;SDS011;2271;49.464;11.070;2022-07-29T01:03:09;2.22;;;1.40;;
4517;SDS011;2271;49.464;11.070;2022-07-29T01:05:35;5.40;;;1.70;;
4517;SDS011;2271;49.464;11.070;2022-07-29T01:08:01;4.97;;;1.42;;
4517;SDS011;2271;49.464;11.070;2022-07-29T01:10:27;4.47;;;1.17;;
4517;SDS011;2271;49.464;11.070;2022-07-29T01:12:54;2.13;;;1.17;;
4517;SDS011;2271;49.464;11.070;2022-07-29T01:15:23;5.55;;;1.80;;
4517;SDS011;2271;49.464;11.070;2022-07-29T01:18:03;5.35;;;1.60;;
4517;SDS011;2271;49.464;11.070;2022-07-29T01:26:47;3.78;;;1.42;;
4517;SDS011;2271;49.464;11.070;2022-07-29T01:29:16;3.70;;;1.48;;
4517;SDS011;2271;49.464;11.070;2022-07-29T01:31:50;1.98;;;1.35;;
4517;SDS011;2271;49.464;11.070;2022-07-29T01:37:08;2.05;;;1.83;;
4517;SDS011;2271;49.464;11.070;2022-07-29T01:39:46;4.35;;;1.70;;
4517;SDS011;2271;49.464;11.070;2022-07-29T01:42:15;1.20;;;1.05;;
4517;SDS011;2271;49.464;11.070;2022-07-29T01:47:40;3.70;;;1.92;;
4517;SDS011;2271;49.464;11.070;2022-07-29T01:50:10;3.50;;;1.80;;
4517;SDS011;2271;49.464;11.070;2022-07-29T01:52:45;4.45;;;1.70;;
4517;SDS011;2271;49.464;11.070;2022-07-29T01:55:16;4.55;;;1.70;;
4517;SDS011;2271;49.464;11.070;2022-07-29T01:57:46;2.53;;;1.38;;
4517;SDS011;2271;49.464;11.070;2022-07-29T02:00:15;4.60;;;1.58;;
4517;SDS011;2271;49.464;11.070;2022-07-29T02:02:42;4.03;;;1.67;;
4517;SDS011;2271;49.464;11.070;2022-07-29T02:05:11;3.30;;;1.42;;
4517;SDS011;2271;49.464;11.070;2022-07-29T02:07:40;1.35;;;1.10;;
4517;SDS011;2271;49.464;11.070;2022-07-29T02:10:08;2.10;;;1.75;;
4517;SDS011;2271;49.464;11.070;2022-07-29T02:12:35;3.80;;;1.20;;
4517;SDS011;2271;49.464;11.070;2022-07-29T02:15:02;2.25;;;1.50;;
4517;SDS011;2271;49.464;11.070;2022-07-29T02:17:35;2.38;;;1.70;;
4517;SDS011;2271;49.464;11.070;2022-07-29T02:20:06;5.45;;;2.35;;
4517;SDS011;2271;49.464;11.070;2022-07-29T02:22:33;2.60;;;1.60;;
4517;SDS011;2271;49.464;11.070;2022-07-29T02:25:02;1.63;;;1.20;;
4517;SDS011;2271;49.464;11.070;2022-07-29T02:27:29;2.47;;;1.40;;
4517;SDS011;2271;49.464;11.070;2022-07-29T02:29:58;3.85;;;1.55;;
4517;SDS011;2271;49.464;11.070;2022-07-29T02:32:27;2.67;;;1.50;;
4517;SDS011;2271;49.464;11.070;2022-07-29T02:34:53;3.38;;;1.70;;
4517;SDS011;2271;49.464;11.070;2022-07-29T02:37:20;3.10;;;1.58;;
4517;SDS011;2271;49.464;11.070;2022-07-29T02:39:47;4.00;;;1.63;;
4517;SDS011;2271;49.464;11.070;2022-07-29T02:42:15;3.40;;;1.60;;
4517;SDS011;2271;49.464;11.070;2022-07-29T02:44:42;2.20;;;1.80;;
4517;SDS011;2271;49.464;11.070;2022-07-29T02:47:13;2.50;;;1.80;;
4517;SDS011;2271;49.464;11.070;2022-07-29T02:49:55;3.30;;;1.40;;
4517;SDS011;2271;49.464;11.070;2022-07-29T02:52:38;4.13;;;1.85;;
4517;SDS011;2271;49.464;11.070;2022-07-29T02:55:35;3.85;;;1.50;;
4517;SDS011;2271;49.464;11.070;2022-07-29T02:58:12;4.07;;;1.40;;
4517;SDS011;2271;49.464;11.070;2022-07-29T03:00:44;4.60;;;1.80;;
4517;SDS011;2271;49.464;11.070;2022-07-29T03:03:15;6.55;;;1.63;;
4517;SDS011;2271;49.464;11.070;2022-07-29T03:05:43;2.20;;;1.85;;
4517;SDS011;2271;49.464;11.070;2022-07-29T03:08:11;1.63;;;1.50;;
4517;SDS011;2271;49.464;11.070;2022-07-29T03:10:38;3.20;;;1.40;;
4517;SDS011;2271;49.464;11.070;2022-07-29T03:13:08;4.07;;;1.58;;
4517;SDS011;2271;49.464;11.070;2022-07-29T03:15:34;7.47;;;1.90;;
4517;SDS011;2271;49.464;11.070;2022-07-29T03:18:01;4.13;;;1.70;;
4517;SDS011;2271;49.464;11.070;2022-07-29T03:20:27;2.22;;;1.60;;
4517;SDS011;2271;49.464;11.070;2022-07-29T03:22:53;3.08;;;1.90;;
4517;SDS011;2271;49.464;11.070;2022-07-29T03:25:19;4.82;;;1.98;;
4517;SDS011;2271;49.464;11.070;2022-07-29T03:27:45;1.63;;;1.50;;
4517;SDS011;2271;49.464;11.070;2022-07-29T03:30:12;3.42;;;1.58;;
4517;SDS011;2271;49.464;11.070;2022-07-29T03:32:39;6.75;;;2.33;;
4517;SDS011;2271;49.464;11.070;2022-07-29T03:35:06;2.58;;;1.42;;
4517;SDS011;2271;49.464;11.070;2022-07-29T03:37:32;3.05;;;1.38;;
4517;SDS011;2271;49.464;11.070;2022-07-29T03:39:58;4.03;;;1.58;;
4517;SDS011;2271;49.464;11.070;2022-07-29T03:42:27;4.07;;;1.63;;
4517;SDS011;2271;49.464;11.070;2022-07-29T03:44:56;3.75;;;1.40;;
4517;SDS011;2271;49.464;11.070;2022-07-29T03:47:24;2.42;;;1.35;;
4517;SDS011;2271;49.464;11.070;2022-07-29T03:49:55;2.33;;;1.27;;
4517;SDS011;2271;49.464;11.070;2022-07-29T03:52:25;5.93;;;1.80;;
4517;SDS011;2271;49.464;11.070;2022-07-29T03:54:51;2.75;;;1.50;;
4517;SDS011;2271;49.464;11.070;2022-07-29T03:57:18;2.10;;;1.48;;
4517;SDS011;2271;49.464;11.070;2022-07-29T03:59:45;4.82;;;1.83;;
4517;SDS011;2271;49.464;11.070;2022-07-29T04:02:11;2.65;;;1.33;;
4517;SDS011;2271;49.464;11.070;2022-07-29T04:04:38;2.03;;;1.38;;
4517;SDS011;2271;49.464;11.070;2022-07-29T04:07:03;2.08;;;1.55;;
4517;SDS011;2271;49.464;11.070;2022-07-29T04:09:29;7.13;;;1.50;;
4517;SDS011;2271;49.464;11.070;2022-07-29T04:11:55;4.28;;;1.85;;
4517;SDS011;2271;49.464;11.070;2022-07-29T04:14:21;1.90;;;1.38;;
4517;SDS011;2271;49.464;11.070;2022-07-29T04:16:46;2.03;;;1.30;;
4517;SDS011;2271;49.464;11.070;2022-07-29T04:19:12;5.88;;;1.45;;
4517;SDS011;2271;49.464;11.070;2022-07-29T04:21:38;2.05;;;1.20;;
4517;SDS011;2271;49.464;11.070;2022-07-29T04:24:04;4.15;;;1.20;;
4517;SDS011;2271;49.464;11.070;2022-07-29T04:26:30;2.22;;;1.52;;
4517;SDS011;2271;49.464;11.070;2022-07-29T04:28:56;3.20;;;1.65;;
4517;SDS011;2271;49.464;11.070;2022-07-29T04:31:22;2.80;;;1.20;;
4517;SDS011;2271;49.464;11.070;2022-07-29T04:33:48;1.65;;;1.30;;
4517;SDS011;2271;49.464;11.070;2022-07-29T04:36:13;6.30;;;1.63;;
4517;SDS011;2271;49.464;11.070;2022-07-29T04:38:39;1.27;;;1.17;;
4517;SDS011;2271;49.464;11.070;2022-07-29T04:41:05;6.13;;;1.67;;
4517;SDS011;2271;49.464;11.070;2022-07-29T04:43:32;4.00;;;1.67;;
4517;SDS011;2271;49.464;11.070;2022-07-29T04:45:58;1.77;;;1.20;;
4517;SDS011;2271;49.464;11.070;2022-07-29T04:48:25;2.35;;;1.23;;
4517;SDS011;2271;49.464;11.070;2022-07-29T04:50:50;3.90;;;1.27;;
4517;SDS011;2271;49.464;11.070;2022-07-29T04:53:16;2.65;;;1.30;;
4517;SDS011;2271;49.464;11.070;2022-07-29T04:55:42;5.53;;;1.10;;
4517;SDS011;2271;49.464;11.070;2022-07-29T04:58:08;3.80;;;1.60;;
4517;SDS011;2271;49.464;11.070;2022-07-29T05:00:34;2.10;;;1.38;;
4517;SDS011;2271;49.464;11.070;2022-07-29T05:02:59;1.85;;;1.30;;
4517;SDS011;2271;49.464;11.070;2022-07-29T05:05:25;2.00;;;1.30;;
4517;SDS011;2271;49.464;11.070;2022-07-29T05:07:51;2.42;;;1.45;;
4517;SDS011;2271;49.464;11.070;2022-07-29T05:10:16;3.33;;;1.08;;
4517;SDS011;2271;49.464;11.070;2022-07-29T05:12:42;2.63;;;1.23;;
4517;SDS011;2271;49.464;11.070;2022-07-29T05:15:08;3.05;;;1.75;;
4517;SDS011;2271;49.464;11.070;2022-07-29T05:17:34;7.43;;;1.83;;
4517;SDS011;2271;49.464;11.070;2022-07-29T05:19:59;3.45;;;1.55;;
4517;SDS011;2271;49.464;11.070;2022-07-29T05:22:25;1.95;;;1.30;;
4517;SDS011;2271;49.464;11.070;2022-07-29T05:24:51;2.28;;;1.13;;
4517;SDS011;2271;49.464;11.070;2022-07-29T05:27:16;3.90;;;1.42;;
4517;SDS011;2271;49.464;11.070;2022-07-29T05:29:42;5.82;;;1.80;;
4517;SDS011;2271;49.464;11.070;2022-07-29T05:32:07;2.30;;;1.38;;
4517;SDS011;2271;49.464;11.070;2022-07-29T05:34:33;19.15;;;2.65;;
4517;SDS011;2271;49.464;11.070;2022-07-29T05:36:59;4.22;;;1.50;;
4517;SDS011;2271;49.464;11.070;2022-07-29T05:39:25;4.55;;;1.85;;
4517;SDS011;2271;49.464;11.070;2022-07-29T05:41:50;3.55;;;1.65;;
4517;SDS011;2271;49.464;11.070;2022-07-29T05:44:16;9.52;;;1.75;;
4517;SDS011;2271;49.464;11.070;2022-07-29T05:46:42;3.42;;;1.52;;
4517;SDS011;2271;49.464;11.070;2022-07-29T05:49:07;4.00;;;1.63;;
4517;SDS011;2271;49.464;11.070;2022-07-29T05:51:33;2.17;;;1.58;;
4517;SDS011;2271;49.464;11.070;2022-07-29T05:53:59;2.85;;;1.55;;
4517;SDS011;2271;49.464;11.070;2022-07-29T05:56:25;3.85;;;2.00;;
4517;SDS011;2271;49.464;11.070;2022-07-29T05:58:51;3.50;;;1.25;;
4517;SDS011;2271;49.464;11.070;2022-07-29T06:01:16;7.45;;;1.77;;
4517;SDS011;2271;49.464;11.070;2022-07-29T06:03:42;1.77;;;1.35;;
4517;SDS011;2271;49.464;11.070;2022-07-29T06:06:08;6.53;;;1.75;;
4517;SDS011;2271;49.464;11.070;2022-07-29T06:08:34;4.72;;;2.03;;
4517;SDS011;2271;49.464;11.070;2022-07-29T06:11:01;4.20;;;1.80;;
4517;SDS011;2271;49.464;11.070;2022-07-29T06:13:28;4.53;;;2.28;;
4517;SDS011;2271;49.464;11.070;2022-07-29T06:15:54;4.25;;;2.15;;
4517;SDS011;2271;49.464;11.070;2022-07-29T06:18:20;4.18;;;1.75;;
4517;SDS011;2271;49.464;11.070;2022-07-29T06:20:48;4.47;;;1.85;;
4517;SDS011;2271;49.464;11.070;2022-07-29T06:23:15;6.53;;;1.70;;
4517;SDS011;2271;49.464;11.070;2022-07-29T06:25:40;7.72;;;1.85;;
4517;SDS011;2271;49.464;11.070;2022-07-29T06:28:06;4.30;;;1.90;;
4517;SDS011;2271;49.464;11.070;2022-07-29T06:30:32;5.78;;;1.85;;
4517;SDS011;2271;49.464;11.070;2022-07-29T06:32:58;4.00;;;1.90;;
4517;SDS011;2271;49.464;11.070;2022-07-29T06:35:25;2.92;;;2.00;;
4517;SDS011;2271;49.464;11.070;2022-07-29T06:37:50;4.18;;;1.70;;
4517;SDS011;2271;49.464;11.070;2022-07-29T06:40:17;3.88;;;1.90;;
4517;SDS011;2271;49.464;11.070;2022-07-29T06:43:01;3.08;;;1.70;;
4517;SDS011;2271;49.464;11.070;2022-07-29T06:45:27;6.88;;;1.55;;
4517;SDS011;2271;49.464;11.070;2022-07-29T06:47:52;4.93;;;1.80;;
4517;SDS011;2271;49.464;11.070;2022-07-29T06:50:18;6.05;;;2.13;;
4517;SDS011;2271;49.464;11.070;2022-07-29T06:52:44;2.90;;;1.98;;
4517;SDS011;2271;49.464;11.070;2022-07-29T06:55:10;3.92;;;2.65;;
4517;SDS011;2271;49.464;11.070;2022-07-29T06:57:35;3.00;;;1.77;;
4517;SDS011;2271;49.464;11.070;2022-07-29T07:00:01;5.40;;;1.92;;
4517;SDS011;2271;49.464;11.070;2022-07-29T07:02:29;2.53;;;1.50;;
4517;SDS011;2271;49.464;11.070;2022-07-29T07:04:55;4.25;;;2.33;;
4517;SDS011;2271;49.464;11.070;2022-07-29T07:07:21;2.85;;;2.10;;
4517;SDS011;2271;49.464;11.070;2022-07-29T07:09:46;3.08;;;1.77;;
4517;SDS011;2271;49.464;11.070;2022-07-29T07:12:12;6.82;;;2.13;;
4517;SDS011;2271;49.464;11.070;2022-07-29T07:14:37;4.22;;;2.10;;
4517;SDS011;2271;49.464;11.070;2022-07-29T07:17:04;6.80;;;1.90;;
4517;SDS011;2271;49.464;11.070;2022-07-29T07:19:31;3.53;;;1.92;;
4517;SDS011;2271;49.464;11.070;2022-07-29T07:21:57;4.03;;;1.58;;
4517;SDS011;2271;49.464;11.070;2022-07-29T07:24:23;3.95;;;2.15;;
4517;SDS011;2271;49.464;11.070;2022-07-29T07:26:48;3.33;;;1.75;;
4517;SDS011;2271;49.464;11.070;2022-07-29T07:29:14;5.75;;;2.20;;
4517;SDS011;2271;49.464;11.070;2022-07-29T07:31:40;5.10;;;2.47;;
4517;SDS011;2271;49.464;11.070;2022-07-29T07:34:05;6.28;;;1.75;;
4517;SDS011;2271;49.464;11.070;2022-07-29T07:36:31;6.15;;;2.15;;
4517;SDS011;2271;49.464;11.070;2022-07-29T07:38:57;5.97;;;2.00;;
4517;SDS011;2271;49.464;11.070;2022-07-29T07:41:22;4.93;;;2.30;;
4517;SDS011;2271;49.464;11.070;2022-07-29T07:43:48;2.70;;;2.03;;
4517;SDS011;2271;49.464;11.070;2022-07-29T07:46:14;3.10;;;1.88;;
4517;SDS011;2271;49.464;11.070;2022-07-29T07:48:40;2.90;;;2.00;;
4517;SDS011;2271;49.464;11.070;2022-07-29T07:51:06;4.68;;;1.77;;
4517;SDS011;2271;49.464;11.070;2022-07-29T07:53:32;3.83;;;2.00;;
4517;SDS011;2271;49.464;11.070;2022-07-29T07:55:58;6.75;;;2.13;;
4517;SDS011;2271;49.464;11.070;2022-07-29T07:58:24;3.67;;;2.17;;
4517;SDS011;2271;49.464;11.070;2022-07-29T08:00:51;3.03;;;2.15;;
4517;SDS011;2271;49.464;11.070;2022-07-29T08:03:17;3.88;;;1.90;;
4517;SDS011;2271;49.464;11.070;2022-07-29T08:05:43;3.78;;;2.40;;
4517;SDS011;2271;49.464;11.070;2022-07-29T08:08:08;3.30;;;1.88;;
4517;SDS011;2271;49.464;11.070;2022-07-29T08:10:34;6.75;;;2.13;;
4517;SDS011;2271;49.464;11.070;2022-07-29T08:13:21;3.40;;;2.25;;
4517;SDS011;2271;49.464;11.070;2022-07-29T08:15:49;3.67;;;2.38;;
4517;SDS011;2271;49.464;11.070;2022-07-29T08:18:35;5.30;;;2.10;;
4517;SDS011;2271;49.464;11.070;2022-07-29T08:21:01;6.95;;;2.05;;
4517;SDS011;2271;49.464;11.070;2022-07-29T08:23:27;2.83;;;2.00;;
4517;SDS011;2271;49.464;11.070;2022-07-29T08:26:00;2.05;;;1.85;;
4517;SDS011;2271;49.464;11.070;2022-07-29T08:28:25;2.58;;;2.13;;
4517;SDS011;2271;49.464;11.070;2022-07-29T08:30:51;2.88;;;2.05;;
4517;SDS011;2271;49.464;11.070;2022-07-29T08:33:17;2.53;;;2.30;;
4517;SDS011;2271;49.464;11.070;2022-07-29T08:35:43;7.15;;;2.00;;
4517;SDS011;2271;49.464;11.070;2022-07-29T08:38:08;5.68;;;1.67;;
4517;SDS011;2271;49.464;11.070;2022-07-29T08:40:34;4.05;;;2.33;;
4517;SDS011;2271;49.464;11.070;2022-07-29T08:43:04;2.92;;;2.35;;
4517;SDS011;2271;49.464;11.070;2022-07-29T08:45:32;4.05;;;2.17;;
4517;SDS011;2271;49.464;11.070;2022-07-29T08:48:06;3.22;;;2.13;;
4517;SDS011;2271;49.464;11.070;2022-07-29T08:50:32;3.47;;;2.20;;
4517;SDS011;2271;49.464;11.070;2022-07-29T08:53:00;9.70;;;2.38;;
4517;SDS011;2271;49.464;11.070;2022-07-29T08:55:26;3.33;;;2.08;;
4517;SDS011;2271;49.464;11.070;2022-07-29T08:57:52;8.43;;;2.47;;
4517;SDS011;2271;49.464;11.070;2022-07-29T09:00:19;3.30;;;1.92;;
4517;SDS011;2271;49.464;11.070;2022-07-29T09:02:47;3.20;;;2.03;;
4517;SDS011;2271;49.464;11.070;2022-07-29T09:05:16;3.95;;;2.03;;
4517;SDS011;2271;49.464;11.070;2022-07-29T09:07:42;7.10;;;2.60;;
4517;SDS011;2271;49.464;11.070;2022-07-29T09:10:12;2.90;;;2.15;;
4517;SDS011;2271;49.464;11.070;2022-07-29T09:12:38;2.83;;;2.03;;
4517;SDS011;2271;49.464;11.070;2022-07-29T09:15:04;3.08;;;2.53;;
4517;SDS011;2271;49.464;11.070;2022-07-29T09:20:09;3.97;;;2.10;;
4517;SDS011;2271;49.464;11.070;2022-07-29T09:22:36;7.30;;;2.50;;
4517;SDS011;2271;49.464;11.070;2022-07-29T09:25:02;3.33;;;2.30;;
4517;SDS011;2271;49.464;11.070;2022-07-29T09:27:28;3.95;;;2.53;;
4517;SDS011;2271;49.464;11.070;2022-07-29T09:29:58;4.00;;;2.50;;
4517;SDS011;2271;49.464;11.070;2022-07-29T09:32:31;2.60;;;2.40;;
4517;SDS011;2271;49.464;11.070;2022-07-29T09:35:18;5.57;;;2.30;;
4517;SDS011;2271;49.464;11.070;2022-07-29T09:37:45;2.75;;;2.50;;
4517;SDS011;2271;49.464;11.070;2022-07-29T09:40:12;3.47;;;2.47;;
4517;SDS011;2271;49.464;11.070;2022-07-29T09:42:42;3.85;;;2.90;;
4517;SDS011;2271;49.464;11.070;2022-07-29T09:45:09;5.72;;;2.40;;
4517;SDS011;2271;49.464;11.070;2022-07-29T09:47:45;5.75;;;2.20;;
4517;SDS011;2271;49.464;11.070;2022-07-29T09:50:14;2.60;;;2.40;;
4517;SDS011;2271;49.464;11.070;2022-07-29T09:52:45;2.15;;;1.95;;
4517;SDS011;2271;49.464;11.070;2022-07-29T09:55:13;3.10;;;2.03;;
4517;SDS011;2271;49.464;11.070;2022-07-29T09:57:39;3.28;;;2.33;;
4517;SDS011;2271;49.464;11.070;2022-07-29T10:00:06;4.32;;;2.90;;
4517;SDS011;2271;49.464;11.070;2022-07-29T10:02:36;2.92;;;2.70;;
4517;SDS011;2271;49.464;11.070;2022-07-29T10:05:04;3.85;;;1.90;;
4517;SDS011;2271;49.464;11.070;2022-07-29T10:07:47;7.97;;;2.53;;
4517;SDS011;2271;49.464;11.070;2022-07-29T10:10:18;2.38;;;2.17;;
4517;SDS011;2271;49.464;11.070;2022-07-29T10:12:53;4.22;;;2.33;;
4517;SDS011;2271;49.464;11.070;2022-07-29T10:15:21;7.10;;;3.92;;
4517;SDS011;2271;49.464;11.070;2022-07-29T10:17:51;3.67;;;2.25;;
4517;SDS011;2271;49.464;11.070;2022-07-29T10:20:17;3.78;;;2.30;;
4517;SDS011;2271;49.464;11.070;2022-07-29T10:22:44;4.55;;;2.30;;
4517;SDS011;2271;49.464;11.070;2022-07-29T10:25:12;2.50;;;2.30;;
4517;SDS011;2271;49.464;11.070;2022-07-29T10:27:38;7.25;;;2.55;;
4517;SDS011;2271;49.464;11.070;2022-07-29T10:30:04;7.78;;;2.40;;
4517;SDS011;2271;49.464;11.070;2022-07-29T10:43:53;5.82;;;3.45;;
4517;SDS011;2271;49.464;11.070;2022-07-29T10:46:22;4.65;;;2.83;;
4517;SDS011;2271;49.464;11.070;2022-07-29T10:49:07;6.30;;;2.42;;
4517;SDS011;2271;49.464;11.070;2022-07-29T10:59:50;4.28;;;2.75;;
4517;SDS011;2271;49.464;11.070;2022-07-29T11:05:05;4.57;;;2.40;;
4517;SDS011;2271;49.464;11.070;2022-07-29T11:07:33;3.75;;;2.58;;
4517;SDS011;2271;49.464;11.070;2022-07-29T11:15:10;2.67;;;2.38;;
4517;SDS011;2271;49.464;11.070;2022-07-29T11:20:40;3.85;;;2.40;;
4517;SDS011;2271;49.464;11.070;2022-07-29T11:25:43;5.60;;;3.28;;
4517;SDS011;2271;49.464;11.070;2022-07-29T11:28:16;4.57;;;2.78;;
4517;SDS011;2271;49.464;11.070;2022-07-29T11:30:52;4.90;;;2.72;;
4517;SDS011;2271;49.464;11.070;2022-07-29T11:33:28;5.32;;;4.25;;
4517;SDS011;2271;49.464;11.070;2022-07-29T11:36:11;13.23;;;3.38;;
4517;SDS011;2271;49.464;11.070;2022-07-29T11:38:39;4.43;;;3.25;;
4517;SDS011;2271;49.464;11.070;2022-07-29T11:43:49;7.72;;;2.55;;
4517;SDS011;2271;49.464;11.070;2022-07-29T11:46:41;3.33;;;3.03;;
4517;SDS011;2271;49.464;11.070;2022-07-29T11:49:08;4.30;;;2.88;;
4517;SDS011;2271;49.464;11.070;2022-07-29T11:51:38;3.05;;;2.83;;
4517;SDS011;2271;49.464;11.070;2022-07-29T11:54:04;3.95;;;2.30;;
4517;SDS011;2271;49.464;11.070;2022-07-29T11:56:33;6.97;;;2.90;;
4517;SDS011;2271;49.464;11.070;2022-07-29T11:59:04;4.50;;;3.15;;
4517;SDS011;2271;49.464;11.070;2022-07-29T12:01:31;3.25;;;2.95;;
4517;SDS011;2271;49.464;11.070;2022-07-29T12:04:06;5.57;;;3.63;;
4517;SDS011;2271;49.464;11.070;2022-07-29T12:06:36;4.65;;;3.00;;
4517;SDS011;2271;49.464;11.070;2022-07-29T12:09:08;4.45;;;3.42;;
4517;SDS011;2271;49.464;11.070;2022-07-29T12:11:34;4.22;;;3.10;;
4517;SDS011;2271;49.464;11.070;2022-07-29T12:13:59;2.88;;;2.65;;
4517;SDS011;2271;49.464;11.070;2022-07-29T12:16:34;4.75;;;2.72;;
4517;SDS011;2271;49.464;11.070;2022-07-29T12:19:01;4.95;;;3.00;;
4517;SDS011;2271;49.464;11.070;2022-07-29T12:21:28;2.92;;;2.72;;
4517;SDS011;2271;49.464;11.070;2022-07-29T12:23:55;5.63;;;3.15;;
4517;SDS011;2271;49.464;11.070;2022-07-29T12:26:21;4.38;;;2.80;;
4517;SDS011;2271;49.464;11.070;2022-07-29T12:28:47;3.22;;;2.85;;
4517;SDS011;2271;49.464;11.070;2022-07-29T12:31:13;3.70;;;3.22;;
4517;SDS011;2271;49.464;11.070;2022-07-29T12:33:40;6.90;;;3.80;;
4517;SDS011;2271;49.464;11.070;2022-07-29T12:36:06;4.40;;;2.92;;
4517;SDS011;2271;49.464;11.070;2022-07-29T12:38:33;3.10;;;2.50;;
4517;SDS011;2271;49.464;11.070;2022-07-29T12:41:00;3.38;;;3.08;;
4517;SDS011;2271;49.464;11.070;2022-07-29T12:43:25;4.32;;;2.95;;
4517;SDS011;2271;49.464;11.070;2022-07-29T12:45:52;3.30;;;2.72;;
4517;SDS011;2271;49.464;11.070;2022-07-29T12:48:34;2.75;;;2.53;;
4517;SDS011;2271;49.464;11.070;2022-07-29T12:51:02;4.22;;;2.78;;
4517;SDS011;2271;49.464;11.070;2022-07-29T12:53:29;5.63;;;3.13;;
4517;SDS011;2271;49.464;11.070;2022-07-29T12:55:55;3.33;;;2.75;;
4517;SDS011;2271;49.464;11.070;2022-07-29T12:58:32;5.18;;;3.33;;
4517;SDS011;2271;49.464;11.070;2022-07-29T13:01:17;3.15;;;2.83;;
4517;SDS011;2271;49.464;11.070;2022-07-29T13:03:47;3.15;;;2.85;;
4517;SDS011;2271;49.464;11.070;2022-07-29T13:08:59;3.00;;;2.70;;
4517;SDS011;2271;49.464;11.070;2022-07-29T13:11:39;5.53;;;2.70;;
4517;SDS011;2271;49.464;11.070;2022-07-29T13:14:07;3.25;;;2.92;;
4517;SDS011;2271;49.464;11.070;2022-07-29T13:16:35;5.93;;;3.55;;
4517;SDS011;2271;49.464;11.070;2022-07-29T13:19:03;4.70;;;2.85;;
4517;SDS011;2271;49.464;11.070;2022-07-29T13:21:34;7.90;;;3.10;;
4517;SDS011;2271;49.464;11.070;2022-07-29T13:24:00;8.82;;;3.28;;
4517;SDS011;2271;49.464;11.070;2022-07-29T13:26:26;4.80;;;3.13;;
4517;SDS011;2271;49.464;11.070;2022-07-29T13:28:52;3.85;;;3.15;;
4517;SDS011;2271;49.464;11.070;2022-07-29T13:31:19;3.25;;;2.90;;
4517;SDS011;2271;49.464;11.070;2022-07-29T13:33:45;3.90;;;2.78;;
4517;SDS011;2271;49.464;11.070;2022-07-29T13:36:10;3.20;;;2.85;;
4517;SDS011;2271;49.464;11.070;2022-07-29T13:38:36;4.43;;;3.10;;
4517;SDS011;2271;49.464;11.070;2022-07-29T13:41:02;5.70;;;3.00;;
4517;SDS011;2271;49.464;11.070;2022-07-29T13:43:27;11.07;;;2.97;;
4517;SDS011;2271;49.464;11.070;2022-07-29T13:45:53;2.88;;;2.63;;
4517;SDS011;2271;49.464;11.070;2022-07-29T13:48:18;6.93;;;2.17;;
4517;SDS011;2271;49.464;11.070;2022-07-29T13:50:44;5.00;;;2.15;;
4517;SDS011;2271;49.464;11.070;2022-07-29T13:53:11;2.53;;;2.33;;
4517;SDS011;2271;49.464;11.070;2022-07-29T13:55:37;3.60;;;2.58;;
4517;SDS011;2271;49.464;11.070;2022-07-29T13:58:03;5.32;;;2.38;;
4517;SDS011;2271;49.464;11.070;2022-07-29T14:00:28;2.38;;;2.15;;
4517;SDS011;2271;49.464;11.070;2022-07-29T14:02:54;3.13;;;1.80;;
4517;SDS011;2271;49.464;11.070;2022-07-29T14:05:20;2.17;;;1.77;;
4517;SDS011;2271;49.464;11.070;2022-07-29T14:07:46;3.33;;;2.30;;
4517;SDS011;2271;49.464;11.070;2022-07-29T14:10:13;6.95;;;2.50;;
4517;SDS011;2271;49.464;11.070;2022-07-29T14:12:38;3.53;;;2.35;;
4517;SDS011;2271;49.464;11.070;2022-07-29T14:15:06;5.20;;;2.80;;
4517;SDS011;2271;49.464;11.070;2022-07-29T14:17:32;2.55;;;2.17;;
4517;SDS011;2271;49.464;11.070;2022-07-29T14:19:58;3.00;;;2.25;;
4517;SDS011;2271;49.464;11.070;2022-07-29T14:22:24;2.58;;;2.38;;
4517;SDS011;2271;49.464;11.070;2022-07-29T14:24:50;3.33;;;2.47;;
4517;SDS011;2271;49.464;11.070;2022-07-29T14:27:15;3.55;;;2.10;;
4517;SDS011;2271;49.464;11.070;2022-07-29T14:29:41;4.35;;;2.40;;
4517;SDS011;2271;49.464;11.070;2022-07-29T14:32:07;5.40;;;2.60;;
4517;SDS011;2271;49.464;11.070;2022-07-29T14:34:35;2.60;;;1.85;;
4517;SDS011;2271;49.464;11.070;2022-07-29T14:37:01;3.67;;;2.42;;
4517;SDS011;2271;49.464;11.070;2022-07-29T14:39:29;4.65;;;2.00;;
4517;SDS011;2271;49.464;11.070;2022-07-29T14:41:56;3.95;;;1.92;;
4517;SDS011;2271;49.464;11.070;2022-07-29T14:44:21;4.15;;;2.83;;
4517;SDS011;2271;49.464;11.070;2022-07-29T14:46:47;4.25;;;2.20;;
4517;SDS011;2271;49.464;11.070;2022-07-29T14:49:13;5.35;;;2.50;;
4517;SDS011;2271;49.464;11.070;2022-07-29T14:51:38;2.97;;;2.50;;
4517;SDS011;2271;49.464;11.070;2022-07-29T14:54:04;4.97;;;3.10;;
4517;SDS011;2271;49.464;11.070;2022-07-29T14:56:30;2.90;;;2.35;;
4517;SDS011;2271;49.464;11.070;2022-07-29T14:58:56;2.58;;;2.38;;
4517;SDS011;2271;49.464;11.070;2022-07-29T15:01:22;5.05;;;2.72;;
4517;SDS011;2271;49.464;11.070;2022-07-29T15:03:48;3.05;;;2.15;;
4517;SDS011;2271;49.464;11.070;2022-07-29T15:06:14;3.08;;;2.50;;
4517;SDS011;2271;49.464;11.070;2022-07-29T15:08:39;2.53;;;2.25;;
4517;SDS011;2271;49.464;11.070;2022-07-29T15:11:05;4.30;;;2.60;;
4517;SDS011;2271;49.464;11.070;2022-07-29T15:13:31;3.80;;;2.65;;
4517;SDS011;2271;49.464;11.070;2022-07-29T15:15:56;2.67;;;2.05;;
4517;SDS011;2271;49.464;11.070;2022-07-29T15:18:22;4.07;;;2.10;;
4517;SDS011;2271;49.464;11.070;2022-07-29T15:20:47;9.30;;;2.05;;
4517;SDS011;2271;49.464;11.070;2022-07-29T15:23:13;3.40;;;2.83;;
4517;SDS011;2271;49.464;11.070;2022-07-29T15:25:39;5.70;;;2.67;;
4517;SDS011;2271;49.464;11.070;2022-07-29T15:28:04;4.00;;;2.60;;
4517;SDS011;2271;49.464;11.070;2022-07-29T15:30:33;6.85;;;2.67;;
4517;SDS011;2271;49.464;11.070;2022-07-29T15:33:06;3.10;;;2.42;;
4517;SDS011;2271;49.464;11.070;2022-07-29T15:35:35;4.53;;;3.35;;
4517;SDS011;2271;49.464;11.070;2022-07-29T15:38:01;3.72;;;2.50;;
4517;SDS011;2271;49.464;11.070;2022-07-29T15:40:27;5.68;;;2.53;;
4517;SDS011;2271;49.464;11.070;2022-07-29T15:42:53;2.83;;;2.60;;
4517;SDS011;2271;49.464;11.070;2022-07-29T15:45:19;3.22;;;2.67;;
4517;SDS011;2271;49.464;11.070;2022-07-29T15:47:44;5.10;;;3.00;;
4517;SDS011;2271;49.464;11.070;2022-07-29T15:50:10;4.30;;;3.10;;
4517;SDS011;2271;49.464;11.070;2022-07-29T15:52:41;4.85;;;2.83;;
4517;SDS011;2271;49.464;11.070;2022-07-29T15:55:07;2.88;;;2.67;;
4517;SDS011;2271;49.464;11.070;2022-07-29T15:57:33;6.28;;;2.67;;